$GPRMC,000000.000,V,5204.882,N,01638.431,E,0.00,0.00,010070,,*19 $GPGGA,000000.000,5204.882,N,01638.431,E,0,00,0.0,0.000,M,0.0,M,,*66 $GPRMC,000000.000,V,5204.882,N,01638.411,E,0.00,0.00,010070,,*1B $GPGGA,000000.000,5204.882,N,01638.411,E,0,00,0.0,0.000,M,0.0,M,,*64 $GPRMC,000000.000,V,5204.882,N,01638.365,E,0.00,0.00,010070,,*1F $GPGGA,000000.000,5204.882,N,01638.365,E,0,00,0.0,0.000,M,0.0,M,,*60 $GPRMC,000000.000,V,5204.879,N,01638.303,E,0.00,0.00,010070,,*1B $GPGGA,000000.000,5204.879,N,01638.303,E,0,00,0.0,0.000,M,0.0,M,,*64 $GPRMC,000000.000,V,5204.877,N,01638.222,E,0.00,0.00,010070,,*17 $GPGGA,000000.000,5204.877,N,01638.222,E,0,00,0.0,0.000,M,0.0,M,,*68 $GPRMC,000000.000,V,5204.874,N,01638.155,E,0.00,0.00,010070,,*17 $GPGGA,000000.000,5204.874,N,01638.155,E,0,00,0.0,0.000,M,0.0,M,,*68 $GPRMC,000000.000,V,5204.874,N,01638.118,E,0.00,0.00,010070,,*1E $GPGGA,000000.000,5204.874,N,01638.118,E,0,00,0.0,0.000,M,0.0,M,,*61 $GPRMC,000000.000,V,5204.868,N,01638.078,E,0.00,0.00,010070,,*14 $GPGGA,000000.000,5204.868,N,01638.078,E,0,00,0.0,0.000,M,0.0,M,,*6B $GPRMC,000000.000,V,5204.866,N,01638.041,E,0.00,0.00,010070,,*10 $GPGGA,000000.000,5204.866,N,01638.041,E,0,00,0.0,0.000,M,0.0,M,,*6F $GPRMC,000000.000,V,5204.863,N,01638.012,E,0.00,0.00,010070,,*13 $GPGGA,000000.000,5204.863,N,01638.012,E,0,00,0.0,0.000,M,0.0,M,,*6C $GPRMC,000000.000,V,5204.863,N,01637.998,E,0.00,0.00,010070,,*17 $GPGGA,000000.000,5204.863,N,01637.998,E,0,00,0.0,0.000,M,0.0,M,,*68 $GPRMC,000000.000,V,5204.863,N,01637.979,E,0.00,0.00,010070,,*18 $GPGGA,000000.000,5204.863,N,01637.979,E,0,00,0.0,0.000,M,0.0,M,,*67 $GPRMC,000000.000,V,5204.865,N,01637.941,E,0.00,0.00,010070,,*15 $GPGGA,000000.000,5204.865,N,01637.941,E,0,00,0.0,0.000,M,0.0,M,,*6A $GPRMC,000000.000,V,5204.867,N,01637.873,E,0.00,0.00,010070,,*17 $GPGGA,000000.000,5204.867,N,01637.873,E,0,00,0.0,0.000,M,0.0,M,,*68 $GPRMC,000000.000,V,5204.868,N,01637.802,E,0.00,0.00,010070,,*1E $GPGGA,000000.000,5204.868,N,01637.802,E,0,00,0.0,0.000,M,0.0,M,,*61 $GPRMC,000000.000,V,5204.851,N,01637.632,E,0.00,0.00,010070,,*19 $GPGGA,000000.000,5204.851,N,01637.632,E,0,00,0.0,0.000,M,0.0,M,,*66 $GPRMC,000000.000,V,5204.826,N,01637.430,E,0.00,0.00,010070,,*19 $GPGGA,000000.000,5204.826,N,01637.430,E,0,00,0.0,0.000,M,0.0,M,,*66 $GPRMC,000000.000,V,5204.810,N,01637.245,E,0.00,0.00,010070,,*18 $GPGGA,000000.000,5204.810,N,01637.245,E,0,00,0.0,0.000,M,0.0,M,,*67 $GPRMC,000000.000,V,5204.785,N,01637.012,E,0.00,0.00,010070,,*1B $GPGGA,000000.000,5204.785,N,01637.012,E,0,00,0.0,0.000,M,0.0,M,,*64 $GPRMC,000000.000,V,5204.764,N,01636.808,E,0.00,0.00,010070,,*16 $GPGGA,000000.000,5204.764,N,01636.808,E,0,00,0.0,0.000,M,0.0,M,,*69 $GPRMC,000000.000,V,5204.704,N,01636.227,E,0.00,0.00,010070,,*17 $GPGGA,000000.000,5204.704,N,01636.227,E,0,00,0.0,0.000,M,0.0,M,,*68 $GPRMC,000000.000,V,5204.665,N,01635.847,E,0.00,0.00,010070,,*1E $GPGGA,000000.000,5204.665,N,01635.847,E,0,00,0.0,0.000,M,0.0,M,,*61 $GPRMC,000000.000,V,5204.635,N,01635.567,E,0.00,0.00,010070,,*14 $GPGGA,000000.000,5204.635,N,01635.567,E,0,00,0.0,0.000,M,0.0,M,,*6B $GPRMC,000000.000,V,5204.636,N,01635.478,E,0.00,0.00,010070,,*18 $GPGGA,000000.000,5204.636,N,01635.478,E,0,00,0.0,0.000,M,0.0,M,,*67 $GPRMC,000000.000,V,5204.631,N,01635.374,E,0.00,0.00,010070,,*14 $GPGGA,000000.000,5204.631,N,01635.374,E,0,00,0.0,0.000,M,0.0,M,,*6B $GPRMC,000000.000,V,5204.624,N,01635.265,E,0.00,0.00,010070,,*11 $GPGGA,000000.000,5204.624,N,01635.265,E,0,00,0.0,0.000,M,0.0,M,,*6E $GPRMC,000000.000,V,5204.632,N,01634.982,E,0.00,0.00,010070,,*15 $GPGGA,000000.000,5204.632,N,01634.982,E,0,00,0.0,0.000,M,0.0,M,,*6A $GPRMC,000000.000,V,5204.468,N,01634.815,E,0.00,0.00,010070,,*17 $GPGGA,000000.000,5204.468,N,01634.815,E,0,00,0.0,0.000,M,0.0,M,,*68 $GPRMC,000000.000,V,5204.242,N,01634.582,E,0.00,0.00,010070,,*1A $GPGGA,000000.000,5204.242,N,01634.582,E,0,00,0.0,0.000,M,0.0,M,,*65 $GPRMC,000000.000,V,5204.231,N,01634.578,E,0.00,0.00,010070,,*1B $GPGGA,000000.000,5204.231,N,01634.578,E,0,00,0.0,0.000,M,0.0,M,,*64 $GPRMC,000000.000,V,5204.226,N,01634.588,E,0.00,0.00,010070,,*12 $GPGGA,000000.000,5204.226,N,01634.588,E,0,00,0.0,0.000,M,0.0,M,,*6D $GPRMC,000000.000,V,5204.219,N,01634.594,E,0.00,0.00,010070,,*13 $GPGGA,000000.000,5204.219,N,01634.594,E,0,00,0.0,0.000,M,0.0,M,,*6C $GPRMC,000000.000,V,5204.205,N,01634.606,E,0.00,0.00,010070,,*16 $GPGGA,000000.000,5204.205,N,01634.606,E,0,00,0.0,0.000,M,0.0,M,,*69 $GPRMC,000000.000,V,5204.193,N,01634.613,E,0.00,0.00,010070,,*1E $GPGGA,000000.000,5204.193,N,01634.613,E,0,00,0.0,0.000,M,0.0,M,,*61 $GPRMC,000000.000,V,5204.185,N,01634.619,E,0.00,0.00,010070,,*13 $GPGGA,000000.000,5204.185,N,01634.619,E,0,00,0.0,0.000,M,0.0,M,,*6C $GPRMC,000000.000,V,5204.173,N,01634.619,E,0.00,0.00,010070,,*1A $GPGGA,000000.000,5204.173,N,01634.619,E,0,00,0.0,0.000,M,0.0,M,,*65 $GPRMC,000000.000,V,5204.156,N,01634.622,E,0.00,0.00,010070,,*15 $GPGGA,000000.000,5204.156,N,01634.622,E,0,00,0.0,0.000,M,0.0,M,,*6A $GPRMC,000000.000,V,5204.144,N,01634.622,E,0.00,0.00,010070,,*16 $GPGGA,000000.000,5204.144,N,01634.622,E,0,00,0.0,0.000,M,0.0,M,,*69 $GPRMC,000000.000,V,5204.128,N,01634.620,E,0.00,0.00,010070,,*1E $GPGGA,000000.000,5204.128,N,01634.620,E,0,00,0.0,0.000,M,0.0,M,,*61 $GPRMC,000000.000,V,5204.106,N,01634.615,E,0.00,0.00,010070,,*14 $GPGGA,000000.000,5204.106,N,01634.615,E,0,00,0.0,0.000,M,0.0,M,,*6B $GPRMC,000000.000,V,5204.094,N,01634.612,E,0.00,0.00,010070,,*19 $GPGGA,000000.000,5204.094,N,01634.612,E,0,00,0.0,0.000,M,0.0,M,,*66 $GPRMC,000000.000,V,5204.082,N,01634.647,E,0.00,0.00,010070,,*1E $GPGGA,000000.000,5204.082,N,01634.647,E,0,00,0.0,0.000,M,0.0,M,,*61 $GPRMC,000000.000,V,5204.045,N,01634.626,E,0.00,0.00,010070,,*12 $GPGGA,000000.000,5204.045,N,01634.626,E,0,00,0.0,0.000,M,0.0,M,,*6D $GPRMC,000000.000,V,5204.025,N,01634.608,E,0.00,0.00,010070,,*18 $GPGGA,000000.000,5204.025,N,01634.608,E,0,00,0.0,0.000,M,0.0,M,,*67 $GPRMC,000000.000,V,5203.973,N,01634.557,E,0.00,0.00,010070,,*1C $GPGGA,000000.000,5203.973,N,01634.557,E,0,00,0.0,0.000,M,0.0,M,,*63 $GPRMC,000000.000,V,5203.913,N,01634.504,E,0.00,0.00,010070,,*1C $GPGGA,000000.000,5203.913,N,01634.504,E,0,00,0.0,0.000,M,0.0,M,,*63 $GPRMC,000000.000,V,5203.914,N,01634.477,E,0.00,0.00,010070,,*1E $GPGGA,000000.000,5203.914,N,01634.477,E,0,00,0.0,0.000,M,0.0,M,,*61 $GPRMC,000000.000,V,5203.923,N,01634.426,E,0.00,0.00,010070,,*1E $GPGGA,000000.000,5203.923,N,01634.426,E,0,00,0.0,0.000,M,0.0,M,,*61 $GPRMC,000000.000,V,5203.934,N,01634.405,E,0.00,0.00,010070,,*19 $GPGGA,000000.000,5203.934,N,01634.405,E,0,00,0.0,0.000,M,0.0,M,,*66 $GPRMC,000000.000,V,5203.944,N,01634.390,E,0.00,0.00,010070,,*15 $GPGGA,000000.000,5203.944,N,01634.390,E,0,00,0.0,0.000,M,0.0,M,,*6A $GPRMC,000000.000,V,5203.961,N,01634.354,E,0.00,0.00,010070,,*1A $GPGGA,000000.000,5203.961,N,01634.354,E,0,00,0.0,0.000,M,0.0,M,,*65 $GPRMC,000000.000,V,5203.965,N,01634.335,E,0.00,0.00,010070,,*19 $GPGGA,000000.000,5203.965,N,01634.335,E,0,00,0.0,0.000,M,0.0,M,,*66 $GPRMC,000000.000,V,5203.968,N,01634.302,E,0.00,0.00,010070,,*10 $GPGGA,000000.000,5203.968,N,01634.302,E,0,00,0.0,0.000,M,0.0,M,,*6F $GPRMC,000000.000,V,5203.973,N,01634.259,E,0.00,0.00,010070,,*15 $GPGGA,000000.000,5203.973,N,01634.259,E,0,00,0.0,0.000,M,0.0,M,,*6A $GPRMC,000000.000,V,5203.985,N,01634.232,E,0.00,0.00,010070,,*11 $GPGGA,000000.000,5203.985,N,01634.232,E,0,00,0.0,0.000,M,0.0,M,,*6E $GPRMC,000000.000,V,5203.994,N,01634.214,E,0.00,0.00,010070,,*15 $GPGGA,000000.000,5203.994,N,01634.214,E,0,00,0.0,0.000,M,0.0,M,,*6A $GPRMC,000000.000,V,5204.001,N,01634.172,E,0.00,0.00,010070,,*14 $GPGGA,000000.000,5204.001,N,01634.172,E,0,00,0.0,0.000,M,0.0,M,,*6B $GPRMC,000000.000,V,5204.011,N,01634.134,E,0.00,0.00,010070,,*17 $GPGGA,000000.000,5204.011,N,01634.134,E,0,00,0.0,0.000,M,0.0,M,,*68 $GPRMC,000000.000,V,5204.023,N,01634.091,E,0.00,0.00,010070,,*18 $GPGGA,000000.000,5204.023,N,01634.091,E,0,00,0.0,0.000,M,0.0,M,,*67 $GPRMC,000000.000,V,5204.038,N,01634.055,E,0.00,0.00,010070,,*1A $GPGGA,000000.000,5204.038,N,01634.055,E,0,00,0.0,0.000,M,0.0,M,,*65 $GPRMC,000000.000,V,5204.056,N,01634.024,E,0.00,0.00,010070,,*14 $GPGGA,000000.000,5204.056,N,01634.024,E,0,00,0.0,0.000,M,0.0,M,,*6B $GPRMC,000000.000,V,5204.074,N,01633.994,E,0.00,0.00,010070,,*11 $GPGGA,000000.000,5204.074,N,01633.994,E,0,00,0.0,0.000,M,0.0,M,,*6E $GPRMC,000000.000,V,5204.091,N,01633.965,E,0.00,0.00,010070,,*14 $GPGGA,000000.000,5204.091,N,01633.965,E,0,00,0.0,0.000,M,0.0,M,,*6B $GPRMC,000000.000,V,5204.110,N,01633.929,E,0.00,0.00,010070,,*14 $GPGGA,000000.000,5204.110,N,01633.929,E,0,00,0.0,0.000,M,0.0,M,,*6B $GPRMC,000000.000,V,5204.116,N,01633.915,E,0.00,0.00,010070,,*1D $GPGGA,000000.000,5204.116,N,01633.915,E,0,00,0.0,0.000,M,0.0,M,,*62 $GPRMC,000000.000,V,5204.123,N,01633.884,E,0.00,0.00,010070,,*12 $GPGGA,000000.000,5204.123,N,01633.884,E,0,00,0.0,0.000,M,0.0,M,,*6D $GPRMC,000000.000,V,5204.140,N,01633.814,E,0.00,0.00,010070,,*1E $GPGGA,000000.000,5204.140,N,01633.814,E,0,00,0.0,0.000,M,0.0,M,,*61 $GPRMC,000000.000,V,5204.145,N,01633.803,E,0.00,0.00,010070,,*1D $GPGGA,000000.000,5204.145,N,01633.803,E,0,00,0.0,0.000,M,0.0,M,,*62 $GPRMC,000000.000,V,5204.156,N,01633.780,E,0.00,0.00,010070,,*1B $GPGGA,000000.000,5204.156,N,01633.780,E,0,00,0.0,0.000,M,0.0,M,,*64 $GPRMC,000000.000,V,5204.165,N,01633.758,E,0.00,0.00,010070,,*1E $GPGGA,000000.000,5204.165,N,01633.758,E,0,00,0.0,0.000,M,0.0,M,,*61 $GPRMC,000000.000,V,5204.171,N,01633.740,E,0.00,0.00,010070,,*12 $GPGGA,000000.000,5204.171,N,01633.740,E,0,00,0.0,0.000,M,0.0,M,,*6D $GPRMC,000000.000,V,5204.176,N,01633.725,E,0.00,0.00,010070,,*16 $GPGGA,000000.000,5204.176,N,01633.725,E,0,00,0.0,0.000,M,0.0,M,,*69 $GPRMC,000000.000,V,5204.186,N,01633.701,E,0.00,0.00,010070,,*1F $GPGGA,000000.000,5204.186,N,01633.701,E,0,00,0.0,0.000,M,0.0,M,,*60 $GPRMC,000000.000,V,5204.205,N,01633.643,E,0.00,0.00,010070,,*10 $GPGGA,000000.000,5204.205,N,01633.643,E,0,00,0.0,0.000,M,0.0,M,,*6F $GPRMC,000000.000,V,5204.224,N,01633.587,E,0.00,0.00,010070,,*18 $GPGGA,000000.000,5204.224,N,01633.587,E,0,00,0.0,0.000,M,0.0,M,,*67 $GPRMC,000000.000,V,5204.226,N,01633.565,E,0.00,0.00,010070,,*16 $GPGGA,000000.000,5204.226,N,01633.565,E,0,00,0.0,0.000,M,0.0,M,,*69 $GPRMC,000000.000,V,5204.239,N,01633.536,E,0.00,0.00,010070,,*1E $GPGGA,000000.000,5204.239,N,01633.536,E,0,00,0.0,0.000,M,0.0,M,,*61 $GPRMC,000000.000,V,5204.254,N,01633.521,E,0.00,0.00,010070,,*13 $GPGGA,000000.000,5204.254,N,01633.521,E,0,00,0.0,0.000,M,0.0,M,,*6C $GPRMC,000000.000,V,5204.270,N,01633.495,E,0.00,0.00,010070,,*1B $GPGGA,000000.000,5204.270,N,01633.495,E,0,00,0.0,0.000,M,0.0,M,,*64 $GPRMC,000000.000,V,5204.287,N,01633.481,E,0.00,0.00,010070,,*16 $GPGGA,000000.000,5204.287,N,01633.481,E,0,00,0.0,0.000,M,0.0,M,,*69 $GPRMC,000000.000,V,5204.302,N,01633.466,E,0.00,0.00,010070,,*13 $GPGGA,000000.000,5204.302,N,01633.466,E,0,00,0.0,0.000,M,0.0,M,,*6C $GPRMC,000000.000,V,5204.313,N,01633.455,E,0.00,0.00,010070,,*13 $GPGGA,000000.000,5204.313,N,01633.455,E,0,00,0.0,0.000,M,0.0,M,,*6C $GPRMC,000000.000,V,5204.322,N,01633.443,E,0.00,0.00,010070,,*16 $GPGGA,000000.000,5204.322,N,01633.443,E,0,00,0.0,0.000,M,0.0,M,,*69 $GPRMC,000000.000,V,5204.331,N,01633.431,E,0.00,0.00,010070,,*11 $GPGGA,000000.000,5204.331,N,01633.431,E,0,00,0.0,0.000,M,0.0,M,,*6E $GPRMC,000000.000,V,5204.340,N,01633.417,E,0.00,0.00,010070,,*13 $GPGGA,000000.000,5204.340,N,01633.417,E,0,00,0.0,0.000,M,0.0,M,,*6C $GPRMC,000000.000,V,5204.362,N,01633.384,E,0.00,0.00,010070,,*1E $GPGGA,000000.000,5204.362,N,01633.384,E,0,00,0.0,0.000,M,0.0,M,,*61 $GPRMC,000000.000,V,5204.387,N,01633.354,E,0.00,0.00,010070,,*18 $GPGGA,000000.000,5204.387,N,01633.354,E,0,00,0.0,0.000,M,0.0,M,,*67 $GPRMC,000000.000,V,5204.401,N,01633.334,E,0.00,0.00,010070,,*17 $GPGGA,000000.000,5204.401,N,01633.334,E,0,00,0.0,0.000,M,0.0,M,,*68 $GPRMC,000000.000,V,5204.416,N,01633.315,E,0.00,0.00,010070,,*12 $GPGGA,000000.000,5204.416,N,01633.315,E,0,00,0.0,0.000,M,0.0,M,,*6D $GPRMC,000000.000,V,5204.429,N,01633.293,E,0.00,0.00,010070,,*11 $GPGGA,000000.000,5204.429,N,01633.293,E,0,00,0.0,0.000,M,0.0,M,,*6E $GPRMC,000000.000,V,5204.438,N,01633.272,E,0.00,0.00,010070,,*1E $GPGGA,000000.000,5204.438,N,01633.272,E,0,00,0.0,0.000,M,0.0,M,,*61 $GPRMC,000000.000,V,5204.444,N,01633.242,E,0.00,0.00,010070,,*16 $GPGGA,000000.000,5204.444,N,01633.242,E,0,00,0.0,0.000,M,0.0,M,,*69 $GPRMC,000000.000,V,5204.446,N,01633.204,E,0.00,0.00,010070,,*16 $GPGGA,000000.000,5204.446,N,01633.204,E,0,00,0.0,0.000,M,0.0,M,,*69 $GPRMC,000000.000,V,5204.448,N,01633.171,E,0.00,0.00,010070,,*19 $GPGGA,000000.000,5204.448,N,01633.171,E,0,00,0.0,0.000,M,0.0,M,,*66 $GPRMC,000000.000,V,5204.443,N,01633.127,E,0.00,0.00,010070,,*11 $GPGGA,000000.000,5204.443,N,01633.127,E,0,00,0.0,0.000,M,0.0,M,,*6E $GPRMC,000000.000,V,5204.430,N,01633.022,E,0.00,0.00,010070,,*11 $GPGGA,000000.000,5204.430,N,01633.022,E,0,00,0.0,0.000,M,0.0,M,,*6E $GPRMC,000000.000,V,5204.420,N,01632.943,E,0.00,0.00,010070,,*1F $GPGGA,000000.000,5204.420,N,01632.943,E,0,00,0.0,0.000,M,0.0,M,,*60 $GPRMC,000000.000,V,5204.319,N,01632.734,E,0.00,0.00,010070,,*1C $GPGGA,000000.000,5204.319,N,01632.734,E,0,00,0.0,0.000,M,0.0,M,,*63 $GPRMC,000000.000,V,5204.309,N,01632.716,E,0.00,0.00,010070,,*1D $GPGGA,000000.000,5204.309,N,01632.716,E,0,00,0.0,0.000,M,0.0,M,,*62 $GPRMC,000000.000,V,5204.320,N,01632.649,E,0.00,0.00,010070,,*1D $GPGGA,000000.000,5204.320,N,01632.649,E,0,00,0.0,0.000,M,0.0,M,,*62 $GPRMC,000000.000,V,5204.328,N,01632.577,E,0.00,0.00,010070,,*1B $GPGGA,000000.000,5204.328,N,01632.577,E,0,00,0.0,0.000,M,0.0,M,,*64 $GPRMC,000000.000,V,5204.335,N,01632.564,E,0.00,0.00,010070,,*15 $GPGGA,000000.000,5204.335,N,01632.564,E,0,00,0.0,0.000,M,0.0,M,,*6A $GPRMC,000000.000,V,5204.341,N,01632.543,E,0.00,0.00,010070,,*13 $GPGGA,000000.000,5204.341,N,01632.543,E,0,00,0.0,0.000,M,0.0,M,,*6C $GPRMC,000000.000,V,5204.349,N,01632.525,E,0.00,0.00,010070,,*1B $GPGGA,000000.000,5204.349,N,01632.525,E,0,00,0.0,0.000,M,0.0,M,,*64 $GPRMC,000000.000,V,5204.355,N,01632.517,E,0.00,0.00,010070,,*17 $GPGGA,000000.000,5204.355,N,01632.517,E,0,00,0.0,0.000,M,0.0,M,,*68 $GPRMC,000000.000,V,5204.345,N,01632.500,E,0.00,0.00,010070,,*10 $GPGGA,000000.000,5204.345,N,01632.500,E,0,00,0.0,0.000,M,0.0,M,,*6F $GPRMC,000000.000,V,5204.301,N,01632.488,E,0.00,0.00,010070,,*11 $GPGGA,000000.000,5204.301,N,01632.488,E,0,00,0.0,0.000,M,0.0,M,,*6E $GPRMC,000000.000,V,5204.303,N,01632.453,E,0.00,0.00,010070,,*15 $GPGGA,000000.000,5204.303,N,01632.453,E,0,00,0.0,0.000,M,0.0,M,,*6A $GPRMC,000000.000,V,5204.309,N,01632.398,E,0.00,0.00,010070,,*1F $GPGGA,000000.000,5204.309,N,01632.398,E,0,00,0.0,0.000,M,0.0,M,,*60 $GPRMC,000000.000,V,5204.317,N,01632.289,E,0.00,0.00,010070,,*11 $GPGGA,000000.000,5204.317,N,01632.289,E,0,00,0.0,0.000,M,0.0,M,,*6E $GPRMC,000000.000,V,5204.323,N,01632.226,E,0.00,0.00,010070,,*13 $GPGGA,000000.000,5204.323,N,01632.226,E,0,00,0.0,0.000,M,0.0,M,,*6C $GPRMC,000000.000,V,5204.337,N,01632.121,E,0.00,0.00,010070,,*12 $GPGGA,000000.000,5204.337,N,01632.121,E,0,00,0.0,0.000,M,0.0,M,,*6D $GPRMC,000000.000,V,5204.340,N,01632.098,E,0.00,0.00,010070,,*11 $GPGGA,000000.000,5204.340,N,01632.098,E,0,00,0.0,0.000,M,0.0,M,,*6E $GPRMC,000000.000,V,5204.334,N,01632.087,E,0.00,0.00,010070,,*1C $GPGGA,000000.000,5204.334,N,01632.087,E,0,00,0.0,0.000,M,0.0,M,,*63 $GPRMC,000000.000,V,5204.330,N,01632.023,E,0.00,0.00,010070,,*16 $GPGGA,000000.000,5204.330,N,01632.023,E,0,00,0.0,0.000,M,0.0,M,,*69 $GPRMC,000000.000,V,5204.315,N,01631.776,E,0.00,0.00,010070,,*15 $GPGGA,000000.000,5204.315,N,01631.776,E,0,00,0.0,0.000,M,0.0,M,,*6A $GPRMC,000000.000,V,5204.277,N,01631.359,E,0.00,0.00,010070,,*19 $GPGGA,000000.000,5204.277,N,01631.359,E,0,00,0.0,0.000,M,0.0,M,,*66 $GPRMC,000000.000,V,5204.243,N,01630.970,E,0.00,0.00,010070,,*1E $GPGGA,000000.000,5204.243,N,01630.970,E,0,00,0.0,0.000,M,0.0,M,,*61 $GPRMC,000000.000,V,5204.199,N,01630.429,E,0.00,0.00,010070,,*1B $GPGGA,000000.000,5204.199,N,01630.429,E,0,00,0.0,0.000,M,0.0,M,,*64